createdAt,value
2023-01-20T00:01:44.494Z,100758.43
2023-01-20T00:04:12.896Z,100752.14
2023-01-20T00:06:41.689Z,100756.94
2023-01-20T00:09:15.705Z,100754.69
2023-01-20T00:11:44.219Z,100743.27
2023-01-20T00:14:12.824Z,100757.31
2023-01-20T00:16:41.666Z,100762.59
2023-01-20T00:19:12.845Z,100769.86
2023-01-20T00:21:41.777Z,100783.81
2023-01-20T00:24:10.019Z,100791.60
2023-01-20T00:26:38.272Z,100775.34
2023-01-20T00:29:06.675Z,100788.56
2023-01-20T00:31:35.607Z,100778.05
2023-01-20T00:34:04.261Z,100784.09
2023-01-20T00:36:33.158Z,100781.63
2023-01-20T00:39:01.961Z,100775.25
2023-01-20T00:41:31.229Z,100756.23
2023-01-20T00:44:00.109Z,100750.30
2023-01-20T00:46:28.608Z,100728.72
2023-01-20T00:48:57.024Z,100748.09
2023-01-20T00:51:25.881Z,100748.94
2023-01-20T00:53:54.059Z,100745.52
2023-01-20T00:56:22.580Z,100751.18
2023-01-20T00:58:51.207Z,100751.77
2023-01-20T01:01:19.589Z,100753.29
2023-01-20T01:03:48.129Z,100730.73
2023-01-20T01:06:18.199Z,100754.26
2023-01-20T01:08:46.860Z,100742.38
2023-01-20T01:11:15.552Z,100753.73
2023-01-20T01:13:43.775Z,100752.16
2023-01-20T01:16:14.174Z,100756.04
2023-01-20T01:18:43.886Z,100755.19
2023-01-20T01:21:15.784Z,100758.10
2023-01-20T01:23:45.132Z,100769.97
2023-01-20T01:26:13.924Z,100770.30
2023-01-20T01:28:42.319Z,100770.55
2023-01-20T01:31:11.207Z,100774.88
2023-01-20T01:33:39.545Z,100789.43
2023-01-20T01:36:10.184Z,100792.70
2023-01-20T01:38:38.677Z,100791.13
2023-01-20T01:41:07.064Z,100785.48
2023-01-20T01:43:38.216Z,100769.08
2023-01-20T01:46:07.544Z,100763.65
2023-01-20T01:48:46.184Z,100762.89
2023-01-20T01:51:21.207Z,100764.08
2023-01-20T01:53:55.357Z,100768.70
2023-01-20T01:56:26.836Z,100768.02
2023-01-20T01:59:00.046Z,100775.91
2023-01-20T02:01:30.095Z,100768.44
2023-01-20T02:04:04.257Z,100774.63
2023-01-20T02:06:34.245Z,100783.48
2023-01-20T02:09:04.816Z,100782.27
2023-01-20T02:11:42.200Z,100785.32
2023-01-20T02:14:11.040Z,100784.44
2023-01-20T02:16:57.849Z,100781.37
2023-01-20T02:19:53.836Z,100764.36
2023-01-20T02:22:39.913Z,100754.79
2023-01-20T02:25:11.011Z,100769.46
2023-01-20T02:27:55.280Z,100765.48
2023-01-20T02:30:26.559Z,100757.02
2023-01-20T02:33:13.925Z,100772.41
2023-01-20T02:35:46.919Z,100762.50
2023-01-20T02:38:45.654Z,100748.77
2023-01-20T02:41:23.396Z,100745.34
2023-01-20T02:44:11.952Z,100754.08
2023-01-20T02:46:53.251Z,100749.41
2023-01-20T02:49:31.603Z,100763.35
2023-01-20T02:52:17.193Z,100744.61
2023-01-20T02:54:50.040Z,100737.25
2023-01-20T02:57:25.855Z,100752.41
2023-01-20T03:00:00.456Z,100739.50
2023-01-20T03:02:32.882Z,100738.48
2023-01-20T03:05:09.365Z,100739.85
2023-01-20T03:07:41.352Z,100750.20
2023-01-20T03:10:14.645Z,100752.64
2023-01-20T03:12:54.079Z,100755.95
2023-01-20T03:15:28.786Z,100756.43
2023-01-20T03:17:57.948Z,100761.29
2023-01-20T03:20:26.159Z,100764.20
2023-01-20T03:22:55.155Z,100764.77
2023-01-20T03:25:24.246Z,100767.23
2023-01-20T03:27:52.554Z,100788.55
2023-01-20T03:30:22.097Z,100791.48
2023-01-20T03:32:53.626Z,100787.70
2023-01-20T03:35:23.371Z,100785.80
2023-01-20T03:37:51.836Z,100792.95
2023-01-20T03:40:23.419Z,100802.27
2023-01-20T03:43:21.240Z,100802.05
2023-01-20T03:46:03.300Z,100808.23
2023-01-20T03:48:53.786Z,100805.52
2023-01-20T03:51:33.640Z,100801.98
2023-01-20T03:54:09.856Z,100804.98
2023-01-20T03:56:50.528Z,100818.90
2023-01-20T03:59:21.447Z,100821.40
2023-01-20T04:01:50.304Z,100812.43
2023-01-20T04:04:20.059Z,100805.13
2023-01-20T04:06:51.412Z,100815.83
2023-01-20T04:09:29.121Z,100822.70
2023-01-20T04:11:57.601Z,100813.06
2023-01-20T04:14:26.160Z,100823.90
2023-01-20T04:16:57.154Z,100829.69
2023-01-20T04:19:26.391Z,100824.80
2023-01-20T04:22:32.050Z,100825.83
2023-01-20T04:25:13.988Z,100825.83
2023-01-20T04:27:42.698Z,100836.91
2023-01-20T04:30:13.013Z,100833.81
2023-01-20T04:32:41.185Z,100849.78
2023-01-20T04:35:19.944Z,100846.95
2023-01-20T04:37:48.234Z,100848.11
2023-01-20T04:40:17.039Z,100856.23
2023-01-20T04:42:45.555Z,100856.21
2023-01-20T04:45:17.853Z,100856.16
2023-01-20T04:47:46.342Z,100860.71
2023-01-20T04:50:15.250Z,100858.57
2023-01-20T04:52:44.111Z,100859.55
2023-01-20T04:55:13.599Z,100855.88
2023-01-20T04:57:41.996Z,100854.02
2023-01-20T05:00:11.724Z,100853.66
2023-01-20T05:02:40.584Z,100859.77
2023-01-20T05:05:09.406Z,100858.86
2023-01-20T05:07:37.598Z,100861.89
2023-01-20T05:10:06.535Z,100869.36
2023-01-20T05:12:34.815Z,100874.30
2023-01-20T05:15:03.558Z,100878.21
2023-01-20T05:17:31.937Z,100878.95
2023-01-20T05:20:00.182Z,100890.76
2023-01-20T05:22:29.368Z,100891.66
2023-01-20T05:24:57.820Z,100895.39
2023-01-20T05:27:26.255Z,100900.70
2023-01-20T05:29:54.696Z,100898.76
2023-01-20T05:32:23.319Z,100895.92
2023-01-20T05:34:53.314Z,100900.36
2023-01-20T05:37:21.537Z,100894.94
2023-01-20T05:39:49.979Z,100893.38
2023-01-20T05:42:18.270Z,100885.81
2023-01-20T05:44:46.536Z,100890.05
2023-01-20T05:47:15.154Z,100884.34
2023-01-20T05:49:43.412Z,100879.48
2023-01-20T05:52:11.577Z,100882.19
2023-01-20T05:54:40.293Z,100883.37
2023-01-20T05:57:08.653Z,100881.77
2023-01-20T05:59:36.965Z,100886.10
2023-01-20T06:02:05.445Z,100885.34
2023-01-20T06:04:33.659Z,100891.83
2023-01-20T06:07:02.400Z,100904.65
2023-01-20T06:09:30.880Z,100903.87
2023-01-20T06:11:59.082Z,100909.88
2023-01-20T06:14:27.257Z,100909.97
2023-01-20T06:16:55.831Z,100910.86
2023-01-20T06:19:24.205Z,100914.58
2023-01-20T06:21:52.569Z,100919.05
2023-01-20T06:24:20.705Z,100918.05
2023-01-20T06:26:50.959Z,100920.21
2023-01-20T06:29:19.987Z,100922.94
2023-01-20T06:31:48.745Z,100929.67
2023-01-20T06:34:20.377Z,100929.36
2023-01-20T06:36:49.045Z,100934.52
2023-01-20T06:39:17.526Z,100932.48
2023-01-20T06:41:45.802Z,100932.37
2023-01-20T06:44:14.192Z,100943.33
2023-01-20T06:46:43.907Z,100954.05
2023-01-20T06:49:12.974Z,100953.33
2023-01-20T06:51:41.289Z,100967.45
2023-01-20T06:54:09.572Z,100956.23
2023-01-20T06:56:37.857Z,100963.45
2023-01-20T06:59:06.121Z,100963.90
2023-01-20T07:01:34.457Z,100958.94
2023-01-20T07:04:03.202Z,100967.98
2023-01-20T07:06:37.888Z,100967.21
2023-01-20T07:09:09.061Z,100965.73
2023-01-20T07:11:37.420Z,100970.93
2023-01-20T07:14:06.946Z,100966.47
2023-01-20T07:16:35.332Z,100969.11
2023-01-20T07:19:12.436Z,100980.09
2023-01-20T07:21:40.844Z,100977.03
2023-01-20T07:24:11.589Z,100975.73
2023-01-20T07:26:40.611Z,100982.43
2023-01-20T07:29:09.068Z,100989.98
2023-01-20T07:31:37.351Z,100992.97
2023-01-20T07:34:05.857Z,101008.13
2023-01-20T07:36:33.994Z,101010.42
2023-01-20T07:39:02.992Z,101009.16
2023-01-20T07:41:31.437Z,101005.46
2023-01-20T07:43:59.604Z,101007.48
2023-01-20T07:46:27.900Z,101016.42
2023-01-20T07:48:56.542Z,101015.52
2023-01-20T07:51:24.837Z,101010.90
2023-01-20T07:53:53.181Z,101022.06
2023-01-20T07:56:24.630Z,101030.77
2023-01-20T07:58:56.132Z,101038.69
2023-01-20T08:01:27.082Z,101043.36
2023-01-20T08:03:56.494Z,101047.88
2023-01-20T08:06:26.576Z,101053.48
2023-01-20T08:08:58.624Z,101054.34
2023-01-20T08:11:27.036Z,101058.16
2023-01-20T08:13:55.504Z,101064.86
2023-01-20T08:16:25.447Z,101071.04
2023-01-20T08:18:55.431Z,101073.50
2023-01-20T08:21:34.236Z,101079.84
2023-01-20T08:24:04.798Z,101077.95
2023-01-20T08:26:34.600Z,101071.70
2023-01-20T08:29:10.192Z,101072.70
2023-01-20T08:31:40.075Z,101090.52
2023-01-20T08:34:08.502Z,101089.73
2023-01-20T08:36:39.361Z,101086.79
2023-01-20T08:39:11.056Z,101096.86
2023-01-20T08:41:42.615Z,101109.42
2023-01-20T08:44:11.893Z,101114.92
2023-01-20T08:46:41.922Z,101133.16
2023-01-20T08:49:15.531Z,101138.38
2023-01-20T08:51:44.594Z,101143.09
2023-01-20T08:54:12.822Z,101141.58
2023-01-20T08:56:41.685Z,101139.77
2023-01-20T08:59:11.370Z,101144.42
2023-01-20T09:01:40.006Z,101147.59
2023-01-20T09:04:08.372Z,101148.38
2023-01-20T09:06:48.896Z,101156.50
2023-01-20T09:09:20.252Z,101158.36
2023-01-20T09:11:49.683Z,101154.92
2023-01-20T09:14:24.259Z,101161.05
2023-01-20T09:16:52.791Z,101164.91
2023-01-20T09:19:21.205Z,101166.64
2023-01-20T09:21:50.146Z,101162.25
2023-01-20T09:24:20.815Z,101177.66
2023-01-20T09:26:50.617Z,101173.77
2023-01-20T09:29:21.426Z,101190.61
2023-01-20T09:31:55.825Z,101194.27
2023-01-20T09:34:26.578Z,101187.29
2023-01-20T09:36:59.424Z,101204.69
2023-01-20T09:39:30.782Z,101202.69
2023-01-20T09:42:03.982Z,101191.61
2023-01-20T09:44:35.259Z,101205.40
2023-01-20T09:47:24.393Z,101209.17
2023-01-20T09:50:06.493Z,101208.73
2023-01-20T09:52:37.583Z,101216.21
2023-01-20T09:55:17.350Z,101218.37
2023-01-20T09:57:52.347Z,101224.73
2023-01-20T10:00:24.392Z,101225.21
2023-01-20T10:03:01.787Z,101220.08
2023-01-20T10:05:37.859Z,101219.52
2023-01-20T10:08:19.026Z,101224.95
2023-01-20T10:10:50.727Z,101229.40
2023-01-20T10:13:29.451Z,101233.23
2023-01-20T10:15:57.683Z,101238.33
2023-01-20T10:18:42.846Z,101236.38
2023-01-20T10:21:27.165Z,101238.15
2023-01-20T10:24:00.590Z,101238.37
2023-01-20T10:26:45.847Z,101243.46
2023-01-20T10:29:38.925Z,101245.00
2023-01-20T10:35:25.331Z,101242.55
2023-01-20T10:37:54.777Z,101241.70
2023-01-20T10:40:40.335Z,101240.23
2023-01-20T10:43:17.723Z,101246.84
2023-01-20T10:46:07.591Z,101247.02
2023-01-20T10:48:54.390Z,101243.38
2023-01-20T10:51:46.731Z,101242.02
2023-01-20T10:54:31.330Z,101241.85
2023-01-20T10:57:04.871Z,101241.25
2023-01-20T10:59:42.882Z,101232.94
2023-01-20T11:02:23.297Z,101224.32
2023-01-20T11:05:27.004Z,101216.77
2023-01-20T11:07:58.774Z,101216.67
2023-01-20T11:10:32.577Z,101215.44
2023-01-20T11:13:02.641Z,101220.13
2023-01-20T11:15:38.169Z,101225.14
2023-01-20T11:18:23.226Z,101230.43
2023-01-20T11:20:56.034Z,101226.95
2023-01-20T11:23:30.798Z,101222.14
2023-01-20T11:26:08.604Z,101215.83
2023-01-20T11:28:49.127Z,101215.98
2023-01-20T11:31:17.763Z,101212.15
2023-01-20T11:34:04.315Z,101205.64
2023-01-20T11:36:32.300Z,101196.48
2023-01-20T11:39:00.635Z,101196.46
2023-01-20T11:41:31.013Z,101191.36
2023-01-20T11:44:00.912Z,101195.43
2023-01-20T11:46:31.859Z,101195.11
2023-01-20T11:49:26.966Z,101201.76
2023-01-20T11:51:58.392Z,101193.94
2023-01-20T11:54:29.209Z,101192.73
2023-01-20T11:57:07.424Z,101186.85
2023-01-20T11:59:37.111Z,101188.84
2023-01-20T12:02:23.929Z,101179.61
2023-01-20T12:05:12.917Z,101172.30
2023-01-20T12:07:51.514Z,101175.02
2023-01-20T12:10:37.303Z,101165.30
2023-01-20T12:13:26.940Z,101166.13
2023-01-20T12:15:59.368Z,101165.23
2023-01-20T12:18:41.885Z,101161.71
2023-01-20T12:21:18.076Z,101163.40
2023-01-20T12:23:53.576Z,101165.55
2023-01-20T12:26:24.060Z,101162.82
2023-01-20T12:29:04.605Z,101158.19
2023-01-20T12:31:33.232Z,101154.90
2023-01-20T12:34:07.590Z,101151.88
2023-01-20T12:37:04.819Z,101149.94
2023-01-20T12:40:15.161Z,101144.93
2023-01-20T12:43:06.881Z,101140.48
2023-01-20T12:46:01.010Z,101146.27
2023-01-20T12:48:44.051Z,101149.48
2023-01-20T12:51:28.721Z,101156.46
2023-01-20T12:54:25.925Z,101149.66
2023-01-20T12:57:20.084Z,101147.13
2023-01-20T13:00:30.352Z,101146.52
2023-01-20T13:03:33.081Z,101151.17
2023-01-20T13:06:37.692Z,101151.33
2023-01-20T13:09:11.519Z,101148.32
2023-01-20T13:11:55.334Z,101147.32
2023-01-20T13:14:36.291Z,101146.77
2023-01-20T13:17:49.512Z,101147.88
2023-01-20T13:20:26.349Z,101147.44
2023-01-20T13:22:56.471Z,101147.73
2023-01-20T13:25:25.476Z,101142.08
2023-01-20T13:27:54.773Z,101143.45
2023-01-20T13:30:57.136Z,101143.94
2023-01-20T13:33:42.042Z,101145.52
2023-01-20T13:36:24.420Z,101153.23
2023-01-20T13:39:44.851Z,101157.33
2023-01-20T13:42:51.453Z,101166.56
2023-01-20T13:45:22.140Z,101175.27
2023-01-20T13:48:02.414Z,101188.70
2023-01-20T13:50:40.552Z,101191.11
2023-01-20T13:53:21.225Z,101188.91
2023-01-20T13:55:55.024Z,101176.89
2023-01-20T13:58:27.273Z,101176.59
2023-01-20T14:00:58.764Z,101181.09
2023-01-20T14:03:29.357Z,101171.80
2023-01-20T14:06:05.569Z,101173.48
2023-01-20T14:08:45.180Z,101174.86
2023-01-20T14:11:18.386Z,101185.05
2023-01-20T14:14:18.268Z,101180.73
2023-01-20T14:16:47.673Z,101185.63
2023-01-20T14:19:27.706Z,101200.97
2023-01-20T14:21:59.019Z,101209.58
2023-01-20T14:24:38.072Z,101213.15
2023-01-20T14:27:18.526Z,101209.63
2023-01-20T14:29:49.073Z,101204.14
2023-01-20T14:32:35.005Z,101192.65
2023-01-20T14:35:15.597Z,101195.89
2023-01-20T14:37:44.297Z,101198.33
2023-01-20T14:40:12.323Z,101199.91
2023-01-20T14:42:40.517Z,101210.67
2023-01-20T14:45:20.383Z,101211.81
2023-01-20T14:47:50.122Z,101217.23
2023-01-20T14:50:20.218Z,101217.83
2023-01-20T14:52:49.032Z,101223.36
2023-01-20T14:55:30.319Z,101213.27
2023-01-20T14:57:59.239Z,101212.91
2023-01-20T15:00:32.510Z,101208.05
2023-01-20T15:03:19.997Z,101211.68
2023-01-20T15:06:22.120Z,101226.11
2023-01-20T15:09:05.660Z,101240.65
2023-01-20T15:11:35.668Z,101236.63
2023-01-20T15:14:03.839Z,101242.21
2023-01-20T15:16:42.278Z,101243.29
2023-01-20T15:19:16.603Z,101250.16
2023-01-20T15:21:48.590Z,101242.91
2023-01-20T15:24:22.491Z,101247.23
2023-01-20T15:26:53.994Z,101252.86
2023-01-20T15:29:26.168Z,101256.88
2023-01-20T15:31:56.379Z,101253.02
2023-01-20T15:34:26.999Z,101260.77
2023-01-20T15:36:56.356Z,101274.94
2023-01-20T15:39:27.780Z,101275.61
2023-01-20T15:42:00.009Z,101277.77
2023-01-20T15:44:28.970Z,101285.40
2023-01-20T15:46:57.840Z,101289.25
2023-01-20T15:49:26.509Z,101291.48
2023-01-20T15:51:54.743Z,101290.96
2023-01-20T15:54:22.946Z,101288.78
2023-01-20T15:56:51.273Z,101294.42
2023-01-20T15:59:21.805Z,101304.08
2023-01-20T16:01:51.100Z,101316.29
2023-01-20T16:04:19.900Z,101322.18
2023-01-20T16:06:48.105Z,101324.67
2023-01-20T16:09:26.738Z,101331.50
2023-01-20T16:11:55.448Z,101334.35
2023-01-20T16:14:23.629Z,101337.13
2023-01-20T16:16:51.875Z,101328.91
2023-01-20T16:19:19.970Z,101332.45
2023-01-20T16:21:48.077Z,101335.00
2023-01-20T16:24:16.321Z,101344.64
2023-01-20T16:26:47.118Z,101352.38
2023-01-20T16:29:16.328Z,101352.58
2023-01-20T16:31:44.537Z,101354.05
2023-01-20T16:34:12.757Z,101352.71
2023-01-20T16:36:41.179Z,101356.77
2023-01-20T16:39:11.028Z,101358.86
2023-01-20T16:41:39.276Z,101359.73
2023-01-20T16:44:08.109Z,101366.82
2023-01-20T16:46:38.136Z,101368.86
2023-01-20T16:49:06.396Z,101373.75
2023-01-20T16:51:35.183Z,101383.94
2023-01-20T16:54:03.675Z,101386.59
2023-01-20T16:56:32.990Z,101391.61
2023-01-20T16:59:03.475Z,101389.61
2023-01-20T17:01:31.965Z,101389.66
2023-01-20T17:04:02.859Z,101398.63
2023-01-20T17:06:34.154Z,101405.63
2023-01-20T17:09:05.205Z,101402.52
2023-01-20T17:11:36.692Z,101400.06
2023-01-20T17:14:09.197Z,101404.14
2023-01-20T17:16:38.987Z,101406.17
2023-01-20T17:19:07.184Z,101402.63
2023-01-20T17:21:38.745Z,101400.61
2023-01-20T17:24:07.555Z,101403.85
2023-01-20T17:26:36.522Z,101402.31
2023-01-20T17:29:06.070Z,101396.83
2023-01-20T17:31:35.723Z,101400.25
2023-01-20T17:34:05.244Z,101403.73
2023-01-20T17:36:35.486Z,101409.13
2023-01-20T17:39:05.850Z,101410.88
2023-01-20T17:41:34.464Z,101416.94
2023-01-20T17:44:03.371Z,101417.56
2023-01-20T17:46:32.184Z,101421.36
2023-01-20T17:49:00.946Z,101430.54
2023-01-20T17:51:32.058Z,101428.41
2023-01-20T17:54:03.532Z,101430.48
2023-01-20T17:56:32.476Z,101434.88
2023-01-20T17:59:00.949Z,101436.15
2023-01-20T18:01:31.747Z,101439.10
2023-01-20T18:04:01.520Z,101445.30
2023-01-20T18:06:30.102Z,101442.39
2023-01-20T18:08:59.566Z,101438.86
2023-01-20T18:11:31.143Z,101438.74
2023-01-20T18:14:00.949Z,101439.34
2023-01-20T18:16:40.723Z,101443.23
2023-01-20T18:19:13.731Z,101442.56
2023-01-20T18:21:43.586Z,101443.70
2023-01-20T18:24:12.649Z,101438.12
2023-01-20T18:26:42.062Z,101435.55
2023-01-20T18:29:14.607Z,101438.40
2023-01-20T18:31:43.405Z,101437.68
2023-01-20T18:34:14.286Z,101440.48
2023-01-20T18:36:44.880Z,101442.36
2023-01-20T18:39:22.131Z,101440.55
2023-01-20T18:41:51.682Z,101440.06
2023-01-20T18:44:20.573Z,101445.14
2023-01-20T18:46:49.485Z,101451.88
2023-01-20T18:49:18.281Z,101454.60
2023-01-20T18:51:46.715Z,101460.73
2023-01-20T18:54:18.837Z,101456.41
2023-01-20T18:56:47.555Z,101454.89
2023-01-20T18:59:16.324Z,101453.86
2023-01-20T19:01:44.687Z,101453.76
2023-01-20T19:04:13.293Z,101454.33
2023-01-20T19:06:43.847Z,101461.20
2023-01-20T19:09:13.172Z,101458.18
2023-01-20T19:11:42.403Z,101454.23
2023-01-20T19:14:15.060Z,101455.03
2023-01-20T19:16:43.533Z,101453.65
2023-01-20T19:19:12.219Z,101448.33
2023-01-20T19:21:41.101Z,101449.73
2023-01-20T19:24:14.621Z,101447.95
2023-01-20T19:26:42.962Z,101450.41
2023-01-20T19:29:13.387Z,101453.89
2023-01-20T19:31:42.020Z,101458.80
2023-01-20T19:34:10.772Z,101456.19
2023-01-20T19:36:39.491Z,101454.79
2023-01-20T19:39:07.880Z,101459.23
2023-01-20T19:41:36.641Z,101463.05
2023-01-20T19:44:05.964Z,101461.85
2023-01-20T19:46:37.498Z,101465.17
2023-01-20T19:49:06.463Z,101459.29
2023-01-20T19:51:34.638Z,101465.91
2023-01-20T19:54:03.495Z,101464.17
2023-01-20T19:56:34.656Z,101463.35
2023-01-20T19:59:04.305Z,101458.73
2023-01-20T20:01:35.101Z,101462.48
2023-01-20T20:04:09.226Z,101461.86
2023-01-20T20:06:39.972Z,101458.15
2023-01-20T20:09:12.204Z,101451.95
2023-01-20T20:11:40.419Z,101454.32
2023-01-20T20:14:12.258Z,101465.77
2023-01-20T20:16:40.864Z,101466.46
2023-01-20T20:19:11.500Z,101465.05
2023-01-20T20:21:39.726Z,101459.00
2023-01-20T20:24:08.327Z,101459.75
2023-01-20T20:26:37.998Z,101463.41
2023-01-20T20:29:07.771Z,101463.05
2023-01-20T20:31:36.435Z,101463.75
2023-01-20T20:34:06.252Z,101457.20
2023-01-20T20:36:35.542Z,101454.98
2023-01-20T20:39:04.727Z,101455.61
2023-01-20T20:41:33.094Z,101451.77
2023-01-20T20:44:02.474Z,101451.60
2023-01-20T20:46:31.293Z,101455.70
2023-01-20T20:49:01.363Z,101455.68
2023-01-20T20:51:32.414Z,101453.30
2023-01-20T20:54:03.010Z,101455.23
2023-01-20T20:56:32.095Z,101453.68
2023-01-20T20:59:03.902Z,101453.23
2023-01-20T21:01:34.333Z,101457.97
2023-01-20T21:04:03.915Z,101461.52
2023-01-20T21:06:33.304Z,101457.77
2023-01-20T21:09:01.542Z,101457.97
2023-01-20T21:11:29.756Z,101458.67
2023-01-20T21:13:58.317Z,101466.05
2023-01-20T21:16:26.741Z,101467.73
2023-01-20T21:18:56.445Z,101467.60
2023-01-20T21:21:25.258Z,101464.00
2023-01-20T21:23:56.291Z,101463.78
2023-01-20T21:26:28.965Z,101460.76
2023-01-20T21:28:59.368Z,101460.38
2023-01-20T21:31:27.620Z,101458.14
2023-01-20T21:33:58.146Z,101457.47
2023-01-20T21:36:27.735Z,101456.30
2023-01-20T21:38:56.009Z,101456.30
2023-01-20T21:41:24.158Z,101460.11
2023-01-20T21:43:52.338Z,101459.54
2023-01-20T21:46:21.087Z,101461.42
2023-01-20T21:48:50.072Z,101460.44
2023-01-20T21:51:18.358Z,101458.73
2023-01-20T21:53:46.467Z,101456.04
2023-01-20T21:56:18.079Z,101453.06
2023-01-20T21:58:46.397Z,101451.68
2023-01-20T22:01:15.191Z,101449.73
2023-01-20T22:03:43.350Z,101451.67
2023-01-20T22:06:12.248Z,101454.83
2023-01-20T22:08:41.646Z,101452.69
2023-01-20T22:11:09.731Z,101450.84
2023-01-20T22:13:37.884Z,101450.27
2023-01-20T22:16:06.550Z,101450.52
2023-01-20T22:18:34.723Z,101454.33
2023-01-20T22:21:08.420Z,101453.11
2023-01-20T22:23:37.867Z,101453.93
2023-01-20T22:26:06.496Z,101454.98
2023-01-20T22:28:34.980Z,101454.20
2023-01-20T22:31:08.317Z,101456.44
2023-01-20T22:33:36.858Z,101454.16
2023-01-20T22:36:06.271Z,101454.70
2023-01-20T22:38:34.466Z,101455.31
2023-01-20T22:41:04.759Z,101454.23
2023-01-20T22:43:33.098Z,101454.54
2023-01-20T22:46:05.427Z,101449.44
2023-01-20T22:48:38.634Z,101450.02
2023-01-20T22:51:13.264Z,101448.29
2023-01-20T22:53:41.859Z,101443.88
2023-01-20T22:56:19.666Z,101437.27
2023-01-20T22:58:48.323Z,101438.05
2023-01-20T23:01:24.197Z,101438.44
2023-01-20T23:03:58.204Z,101437.13
2023-01-20T23:06:29.136Z,101436.31
2023-01-20T23:08:57.247Z,101430.53
2023-01-20T23:11:25.541Z,101430.26
2023-01-20T23:13:53.868Z,101432.31
2023-01-20T23:16:23.347Z,101432.38
2023-01-20T23:18:52.315Z,101430.77
2023-01-20T23:21:21.770Z,101429.36
2023-01-20T23:23:50.284Z,101429.09
2023-01-20T23:26:19.109Z,101421.85
2023-01-20T23:28:47.815Z,101418.02
2023-01-20T23:31:17.247Z,101414.84
2023-01-20T23:33:45.949Z,101413.45
2023-01-20T23:36:18.038Z,101409.77
2023-01-20T23:38:46.606Z,101405.13
2023-01-20T23:41:15.697Z,101403.21
2023-01-20T23:43:44.541Z,101400.30
2023-01-20T23:46:12.631Z,101396.09
2023-01-20T23:48:41.533Z,101390.84
2023-01-20T23:51:10.101Z,101384.33
2023-01-20T23:53:39.378Z,101382.84
2023-01-20T23:56:19.859Z,101374.09
2023-01-20T23:58:48.825Z,101369.05
